sensor_id;sensor_type;location;lat;lon;timestamp;pressure;altitude;pressure_sealevel;temperature
15607;BMP180;7865;50.918;4.510;2023-08-06T00:02:37;99729.00;;;14.40
15607;BMP180;7865;50.918;4.510;2023-08-06T00:07:39;99736.00;;;14.40
15607;BMP180;7865;50.918;4.510;2023-08-06T00:12:40;99735.00;;;14.40
15607;BMP180;7865;50.918;4.510;2023-08-06T00:17:41;99734.00;;;14.40
15607;BMP180;7865;50.918;4.510;2023-08-06T00:22:44;99716.00;;;14.40
15607;BMP180;7865;50.918;4.510;2023-08-06T00:27:45;99712.00;;;14.50
15607;BMP180;7865;50.918;4.510;2023-08-06T00:32:47;99724.00;;;14.50
15607;BMP180;7865;50.918;4.510;2023-08-06T00:37:48;99713.00;;;14.50
15607;BMP180;7865;50.918;4.510;2023-08-06T00:42:49;99711.00;;;14.50
15607;BMP180;7865;50.918;4.510;2023-08-06T00:47:51;99706.00;;;14.50
15607;BMP180;7865;50.918;4.510;2023-08-06T00:52:53;99712.00;;;14.50
15607;BMP180;7865;50.918;4.510;2023-08-06T00:57:55;99712.00;;;14.50
15607;BMP180;7865;50.918;4.510;2023-08-06T01:02:57;99714.00;;;14.60
15607;BMP180;7865;50.918;4.510;2023-08-06T01:18:38;99705.00;;;14.60
15607;BMP180;7865;50.918;4.510;2023-08-06T01:23:40;99711.00;;;14.60
15607;BMP180;7865;50.918;4.510;2023-08-06T01:33:56;99715.00;;;14.70
15607;BMP180;7865;50.918;4.510;2023-08-06T01:38:57;99703.00;;;14.80
15607;BMP180;7865;50.918;4.510;2023-08-06T01:44:00;99706.00;;;14.70
15607;BMP180;7865;50.918;4.510;2023-08-06T01:49:01;99710.00;;;14.70
15607;BMP180;7865;50.918;4.510;2023-08-06T01:54:03;99706.00;;;14.60
15607;BMP180;7865;50.918;4.510;2023-08-06T01:59:04;99720.00;;;14.60
15607;BMP180;7865;50.918;4.510;2023-08-06T02:04:06;99717.00;;;14.60
15607;BMP180;7865;50.918;4.510;2023-08-06T02:09:07;99725.00;;;14.60
15607;BMP180;7865;50.918;4.510;2023-08-06T02:14:10;99723.00;;;14.60
15607;BMP180;7865;50.918;4.510;2023-08-06T02:19:11;99719.00;;;14.50
15607;BMP180;7865;50.918;4.510;2023-08-06T02:24:13;99727.00;;;14.40
15607;BMP180;7865;50.918;4.510;2023-08-06T02:29:14;99727.00;;;14.30
15607;BMP180;7865;50.918;4.510;2023-08-06T02:34:18;99726.00;;;14.30
15607;BMP180;7865;50.918;4.510;2023-08-06T02:39:21;99734.00;;;14.30
15607;BMP180;7865;50.918;4.510;2023-08-06T02:44:22;99738.00;;;14.30
15607;BMP180;7865;50.918;4.510;2023-08-06T02:49:24;99736.00;;;14.40
15607;BMP180;7865;50.918;4.510;2023-08-06T02:54:25;99740.00;;;14.40
15607;BMP180;7865;50.918;4.510;2023-08-06T02:59:26;99745.00;;;14.40
15607;BMP180;7865;50.918;4.510;2023-08-06T03:04:51;99739.00;;;14.40
15607;BMP180;7865;50.918;4.510;2023-08-06T03:09:55;99748.00;;;14.40
15607;BMP180;7865;50.918;4.510;2023-08-06T03:14:57;99746.00;;;14.40
15607;BMP180;7865;50.918;4.510;2023-08-06T03:19:58;99745.00;;;14.40
15607;BMP180;7865;50.918;4.510;2023-08-06T03:25:00;99754.00;;;14.40
15607;BMP180;7865;50.918;4.510;2023-08-06T03:30:02;99761.00;;;14.40
15607;BMP180;7865;50.918;4.510;2023-08-06T03:35:05;99767.00;;;14.40
15607;BMP180;7865;50.918;4.510;2023-08-06T03:40:07;99764.00;;;14.40
15607;BMP180;7865;50.918;4.510;2023-08-06T03:45:09;99779.00;;;14.40
15607;BMP180;7865;50.918;4.510;2023-08-06T03:50:12;99781.00;;;14.40
15607;BMP180;7865;50.918;4.510;2023-08-06T03:55:14;99792.00;;;14.50
15607;BMP180;7865;50.918;4.510;2023-08-06T04:00:16;99795.00;;;14.50
15607;BMP180;7865;50.918;4.510;2023-08-06T04:05:21;99800.00;;;14.50
15607;BMP180;7865;50.918;4.510;2023-08-06T04:10:23;99812.00;;;14.50
15607;BMP180;7865;50.918;4.510;2023-08-06T04:15:24;99820.00;;;14.50
15607;BMP180;7865;50.918;4.510;2023-08-06T04:20:26;99839.00;;;14.50
15607;BMP180;7865;50.918;4.510;2023-08-06T04:25:27;99847.00;;;14.40
15607;BMP180;7865;50.918;4.510;2023-08-06T04:30:29;99873.00;;;14.20
15607;BMP180;7865;50.918;4.510;2023-08-06T04:35:30;99893.00;;;14.10
15607;BMP180;7865;50.918;4.510;2023-08-06T04:40:36;99881.00;;;14.00
15607;BMP180;7865;50.918;4.510;2023-08-06T04:45:37;99895.00;;;13.70
15607;BMP180;7865;50.918;4.510;2023-08-06T04:50:43;99925.00;;;13.50
15607;BMP180;7865;50.918;4.510;2023-08-06T04:55:45;99931.00;;;13.30
15607;BMP180;7865;50.918;4.510;2023-08-06T05:00:46;99967.00;;;13.10
15607;BMP180;7865;50.918;4.510;2023-08-06T05:05:47;99989.00;;;13.00
15607;BMP180;7865;50.918;4.510;2023-08-06T05:10:49;100006.00;;;13.00
15607;BMP180;7865;50.918;4.510;2023-08-06T05:15:50;100016.00;;;13.00
15607;BMP180;7865;50.918;4.510;2023-08-06T05:20:52;100026.00;;;13.10
15607;BMP180;7865;50.918;4.510;2023-08-06T05:25:53;100042.00;;;13.20
15607;BMP180;7865;50.918;4.510;2023-08-06T05:30:54;100053.00;;;13.30
15607;BMP180;7865;50.918;4.510;2023-08-06T05:35:56;100076.00;;;13.30
15607;BMP180;7865;50.918;4.510;2023-08-06T05:40:57;100085.00;;;13.40
15607;BMP180;7865;50.918;4.510;2023-08-06T05:45:58;100103.00;;;13.40
15607;BMP180;7865;50.918;4.510;2023-08-06T05:51:00;100114.00;;;13.40
15607;BMP180;7865;50.918;4.510;2023-08-06T05:56:01;100113.00;;;13.50
15607;BMP180;7865;50.918;4.510;2023-08-06T06:01:02;100119.00;;;13.50
15607;BMP180;7865;50.918;4.510;2023-08-06T06:06:04;100136.00;;;13.60
15607;BMP180;7865;50.918;4.510;2023-08-06T06:11:05;100147.00;;;13.60
15607;BMP180;7865;50.918;4.510;2023-08-06T06:16:07;100168.00;;;13.70
15607;BMP180;7865;50.918;4.510;2023-08-06T06:21:10;100165.00;;;13.80
15607;BMP180;7865;50.918;4.510;2023-08-06T06:26:12;100180.00;;;13.90
15607;BMP180;7865;50.918;4.510;2023-08-06T06:31:14;100186.00;;;14.00
15607;BMP180;7865;50.918;4.510;2023-08-06T06:36:15;100207.00;;;14.10
15607;BMP180;7865;50.918;4.510;2023-08-06T06:41:16;100215.00;;;14.10
15607;BMP180;7865;50.918;4.510;2023-08-06T06:46:18;100219.00;;;14.10
15607;BMP180;7865;50.918;4.510;2023-08-06T06:51:19;100224.00;;;14.20
15607;BMP180;7865;50.918;4.510;2023-08-06T06:56:20;100237.00;;;14.30
15607;BMP180;7865;50.918;4.510;2023-08-06T07:01:22;100241.00;;;14.40
15607;BMP180;7865;50.918;4.510;2023-08-06T07:06:23;100247.00;;;14.50
15607;BMP180;7865;50.918;4.510;2023-08-06T07:11:25;100254.00;;;14.50
15607;BMP180;7865;50.918;4.510;2023-08-06T07:16:26;100264.00;;;14.60
15607;BMP180;7865;50.918;4.510;2023-08-06T07:21:28;100272.00;;;14.80
15607;BMP180;7865;50.918;4.510;2023-08-06T07:26:29;100272.00;;;14.90
15607;BMP180;7865;50.918;4.510;2023-08-06T07:31:30;100272.00;;;15.10
15607;BMP180;7865;50.918;4.510;2023-08-06T07:36:32;100285.00;;;14.90
15607;BMP180;7865;50.918;4.510;2023-08-06T07:41:35;100307.00;;;14.30
15607;BMP180;7865;50.918;4.510;2023-08-06T07:46:36;100299.00;;;14.30
15607;BMP180;7865;50.918;4.510;2023-08-06T07:51:38;100303.00;;;14.80
15607;BMP180;7865;50.918;4.510;2023-08-06T07:56:39;100291.00;;;15.20
15607;BMP180;7865;50.918;4.510;2023-08-06T08:01:41;100297.00;;;15.20
15607;BMP180;7865;50.918;4.510;2023-08-06T08:06:42;100305.00;;;15.50
15607;BMP180;7865;50.918;4.510;2023-08-06T08:11:44;100308.00;;;15.80
15607;BMP180;7865;50.918;4.510;2023-08-06T08:16:46;100308.00;;;15.90
15607;BMP180;7865;50.918;4.510;2023-08-06T08:21:47;100320.00;;;16.00
15607;BMP180;7865;50.918;4.510;2023-08-06T08:26:52;100315.00;;;15.20
15607;BMP180;7865;50.918;4.510;2023-08-06T08:31:54;100344.00;;;14.70
15607;BMP180;7865;50.918;4.510;2023-08-06T08:36:56;100318.00;;;15.50
15607;BMP180;7865;50.918;4.510;2023-08-06T08:41:58;100338.00;;;16.00
15607;BMP180;7865;50.918;4.510;2023-08-06T08:46:59;100335.00;;;15.80
15607;BMP180;7865;50.918;4.510;2023-08-06T08:52:02;100345.00;;;16.00
15607;BMP180;7865;50.918;4.510;2023-08-06T08:57:04;100331.00;;;16.50
15607;BMP180;7865;50.918;4.510;2023-08-06T09:02:08;100332.00;;;16.30
15607;BMP180;7865;50.918;4.510;2023-08-06T09:07:13;100348.00;;;16.20
15607;BMP180;7865;50.918;4.510;2023-08-06T09:12:16;100349.00;;;15.70
15607;BMP180;7865;50.918;4.510;2023-08-06T09:17:18;100372.00;;;15.20
15607;BMP180;7865;50.918;4.510;2023-08-06T09:22:21;100383.00;;;14.80
15607;BMP180;7865;50.918;4.510;2023-08-06T09:27:22;100384.00;;;14.80
15607;BMP180;7865;50.918;4.510;2023-08-06T09:32:23;100398.00;;;14.70
15607;BMP180;7865;50.918;4.510;2023-08-06T09:37:25;100397.00;;;14.60
15607;BMP180;7865;50.918;4.510;2023-08-06T09:42:36;100409.00;;;14.60
15607;BMP180;7865;50.918;4.510;2023-08-06T09:47:38;100406.00;;;14.50
15607;BMP180;7865;50.918;4.510;2023-08-06T09:52:39;100418.00;;;14.40
15607;BMP180;7865;50.918;4.510;2023-08-06T09:57:42;100417.00;;;14.60
15607;BMP180;7865;50.918;4.510;2023-08-06T10:02:45;100413.00;;;14.50
15607;BMP180;7865;50.918;4.510;2023-08-06T10:07:47;100424.00;;;14.70
15607;BMP180;7865;50.918;4.510;2023-08-06T10:12:50;100426.00;;;15.00
15607;BMP180;7865;50.918;4.510;2023-08-06T10:17:56;100442.00;;;15.20
15607;BMP180;7865;50.918;4.510;2023-08-06T10:23:05;100445.00;;;14.90
15607;BMP180;7865;50.918;4.510;2023-08-06T10:28:12;100457.00;;;14.80
15607;BMP180;7865;50.918;4.510;2023-08-06T10:33:19;100457.00;;;14.60
15607;BMP180;7865;50.918;4.510;2023-08-06T10:38:24;100470.00;;;14.70
15607;BMP180;7865;50.918;4.510;2023-08-06T10:43:35;100463.00;;;14.80
15607;BMP180;7865;50.918;4.510;2023-08-06T10:48:40;100489.00;;;15.00
15607;BMP180;7865;50.918;4.510;2023-08-06T10:53:44;100468.00;;;15.70
15607;BMP180;7865;50.918;4.510;2023-08-06T10:58:46;100483.00;;;15.30
15607;BMP180;7865;50.918;4.510;2023-08-06T11:03:48;100494.00;;;15.00
15607;BMP180;7865;50.918;4.510;2023-08-06T11:08:54;100506.00;;;15.50
15607;BMP180;7865;50.918;4.510;2023-08-06T11:13:56;100505.00;;;15.70
15607;BMP180;7865;50.918;4.510;2023-08-06T11:18:57;100507.00;;;15.90
15607;BMP180;7865;50.918;4.510;2023-08-06T11:24:00;100501.00;;;16.40
15607;BMP180;7865;50.918;4.510;2023-08-06T11:29:05;100515.00;;;16.60
15607;BMP180;7865;50.918;4.510;2023-08-06T11:34:06;100478.00;;;16.90
15607;BMP180;7865;50.918;4.510;2023-08-06T11:39:08;100525.00;;;16.30
15607;BMP180;7865;50.918;4.510;2023-08-06T11:44:11;100545.00;;;15.10
15607;BMP180;7865;50.918;4.510;2023-08-06T11:49:14;100550.00;;;14.70
15607;BMP180;7865;50.918;4.510;2023-08-06T11:54:15;100544.00;;;14.80
15607;BMP180;7865;50.918;4.510;2023-08-06T11:59:17;100549.00;;;15.50
15607;BMP180;7865;50.918;4.510;2023-08-06T12:04:21;100533.00;;;16.40
15607;BMP180;7865;50.918;4.510;2023-08-06T12:09:22;100529.00;;;16.10
15607;BMP180;7865;50.918;4.510;2023-08-06T12:14:24;100530.00;;;17.10
15607;BMP180;7865;50.918;4.510;2023-08-06T12:19:25;100522.00;;;16.90
15607;BMP180;7865;50.918;4.510;2023-08-06T12:24:27;100535.00;;;16.70
15607;BMP180;7865;50.918;4.510;2023-08-06T12:29:32;100545.00;;;16.60
15607;BMP180;7865;50.918;4.510;2023-08-06T12:34:34;100545.00;;;16.00
15607;BMP180;7865;50.918;4.510;2023-08-06T12:39:53;100548.00;;;15.70
15607;BMP180;7865;50.918;4.510;2023-08-06T12:44:54;100542.00;;;15.50
15607;BMP180;7865;50.918;4.510;2023-08-06T12:49:56;100589.00;;;15.50
15607;BMP180;7865;50.918;4.510;2023-08-06T12:54:57;100591.00;;;15.30
15607;BMP180;7865;50.918;4.510;2023-08-06T12:59:58;100599.00;;;15.00
15607;BMP180;7865;50.918;4.510;2023-08-06T13:05:00;100616.00;;;14.40
15607;BMP180;7865;50.918;4.510;2023-08-06T13:10:04;100613.00;;;14.30
15607;BMP180;7865;50.918;4.510;2023-08-06T13:15:07;100618.00;;;14.30
15607;BMP180;7865;50.918;4.510;2023-08-06T13:20:08;100619.00;;;14.90
15607;BMP180;7865;50.918;4.510;2023-08-06T13:25:09;100619.00;;;14.80
15607;BMP180;7865;50.918;4.510;2023-08-06T13:30:11;100618.00;;;15.10
15607;BMP180;7865;50.918;4.510;2023-08-06T13:35:13;100621.00;;;14.90
15607;BMP180;7865;50.918;4.510;2023-08-06T13:40:15;100637.00;;;14.50
15607;BMP180;7865;50.918;4.510;2023-08-06T13:45:16;100639.00;;;14.40
15607;BMP180;7865;50.918;4.510;2023-08-06T13:50:18;100650.00;;;14.20
15607;BMP180;7865;50.918;4.510;2023-08-06T13:55:21;100665.00;;;14.10
15607;BMP180;7865;50.918;4.510;2023-08-06T14:00:22;100664.00;;;14.10
15607;BMP180;7865;50.918;4.510;2023-08-06T14:05:24;100674.00;;;14.20
15607;BMP180;7865;50.918;4.510;2023-08-06T14:10:25;100676.00;;;14.50
15607;BMP180;7865;50.918;4.510;2023-08-06T14:15:27;100682.00;;;14.60
15607;BMP180;7865;50.918;4.510;2023-08-06T14:20:28;100687.00;;;14.40
15607;BMP180;7865;50.918;4.510;2023-08-06T14:25:29;100681.00;;;14.50
15607;BMP180;7865;50.918;4.510;2023-08-06T14:30:31;100708.00;;;14.70
15607;BMP180;7865;50.918;4.510;2023-08-06T14:35:32;100721.00;;;14.40
15607;BMP180;7865;50.918;4.510;2023-08-06T14:40:33;100729.00;;;14.70
15607;BMP180;7865;50.918;4.510;2023-08-06T14:45:39;100734.00;;;14.40
15607;BMP180;7865;50.918;4.510;2023-08-06T14:50:40;100750.00;;;14.20
15607;BMP180;7865;50.918;4.510;2023-08-06T14:55:42;100767.00;;;13.90
15607;BMP180;7865;50.918;4.510;2023-08-06T15:00:45;100766.00;;;14.00
15607;BMP180;7865;50.918;4.510;2023-08-06T15:05:47;100762.00;;;14.40
15607;BMP180;7865;50.918;4.510;2023-08-06T15:10:50;100775.00;;;15.00
15607;BMP180;7865;50.918;4.510;2023-08-06T15:15:52;100776.00;;;14.80
15607;BMP180;7865;50.918;4.510;2023-08-06T15:20:54;100779.00;;;15.30
15607;BMP180;7865;50.918;4.510;2023-08-06T15:25:55;100780.00;;;15.60
15607;BMP180;7865;50.918;4.510;2023-08-06T15:30:57;100787.00;;;15.70
15607;BMP180;7865;50.918;4.510;2023-08-06T15:35:58;100788.00;;;15.80
15607;BMP180;7865;50.918;4.510;2023-08-06T15:40:59;100786.00;;;15.70
15607;BMP180;7865;50.918;4.510;2023-08-06T15:46:00;100795.00;;;15.60
15607;BMP180;7865;50.918;4.510;2023-08-06T15:51:02;100794.00;;;15.50
15607;BMP180;7865;50.918;4.510;2023-08-06T15:56:04;100803.00;;;15.30
15607;BMP180;7865;50.918;4.510;2023-08-06T16:01:06;100813.00;;;15.90
15607;BMP180;7865;50.918;4.510;2023-08-06T16:06:08;100819.00;;;16.20
15607;BMP180;7865;50.918;4.510;2023-08-06T16:11:10;100814.00;;;16.50
15607;BMP180;7865;50.918;4.510;2023-08-06T16:16:11;100825.00;;;16.20
15607;BMP180;7865;50.918;4.510;2023-08-06T16:21:12;100822.00;;;16.00
15607;BMP180;7865;50.918;4.510;2023-08-06T16:26:14;100835.00;;;15.70
15607;BMP180;7865;50.918;4.510;2023-08-06T16:31:15;100834.00;;;15.50
15607;BMP180;7865;50.918;4.510;2023-08-06T16:36:16;100843.00;;;15.90
15607;BMP180;7865;50.918;4.510;2023-08-06T16:41:18;100858.00;;;16.00
15607;BMP180;7865;50.918;4.510;2023-08-06T16:46:19;100868.00;;;16.10
15607;BMP180;7865;50.918;4.510;2023-08-06T16:51:21;100868.00;;;15.70
15607;BMP180;7865;50.918;4.510;2023-08-06T16:56:22;100861.00;;;15.80
15607;BMP180;7865;50.918;4.510;2023-08-06T17:01:24;100868.00;;;15.90
15607;BMP180;7865;50.918;4.510;2023-08-06T17:06:25;100883.00;;;15.80
15607;BMP180;7865;50.918;4.510;2023-08-06T17:11:30;100893.00;;;16.30
15607;BMP180;7865;50.918;4.510;2023-08-06T17:16:33;100896.00;;;16.30
15607;BMP180;7865;50.918;4.510;2023-08-06T17:21:34;100909.00;;;16.00
15607;BMP180;7865;50.918;4.510;2023-08-06T17:26:36;100918.00;;;16.00
15607;BMP180;7865;50.918;4.510;2023-08-06T17:31:37;100920.00;;;16.00
15607;BMP180;7865;50.918;4.510;2023-08-06T17:36:41;100930.00;;;15.90
15607;BMP180;7865;50.918;4.510;2023-08-06T17:41:42;100941.00;;;15.90
15607;BMP180;7865;50.918;4.510;2023-08-06T17:46:47;100944.00;;;15.80
15607;BMP180;7865;50.918;4.510;2023-08-06T17:51:48;100951.00;;;15.80
15607;BMP180;7865;50.918;4.510;2023-08-06T17:56:50;100958.00;;;15.80
15607;BMP180;7865;50.918;4.510;2023-08-06T18:01:52;100950.00;;;15.70
15607;BMP180;7865;50.918;4.510;2023-08-06T18:06:53;100956.00;;;15.30
15607;BMP180;7865;50.918;4.510;2023-08-06T18:11:55;100954.00;;;15.10
15607;BMP180;7865;50.918;4.510;2023-08-06T18:16:57;100961.00;;;15.00
15607;BMP180;7865;50.918;4.510;2023-08-06T18:22:00;100961.00;;;15.00
15607;BMP180;7865;50.918;4.510;2023-08-06T18:27:02;100966.00;;;15.00
15607;BMP180;7865;50.918;4.510;2023-08-06T18:32:03;100973.00;;;14.90
15607;BMP180;7865;50.918;4.510;2023-08-06T18:37:05;100965.00;;;14.80
15607;BMP180;7865;50.918;4.510;2023-08-06T18:42:07;100970.00;;;14.70
15607;BMP180;7865;50.918;4.510;2023-08-06T18:47:09;100977.00;;;14.50
15607;BMP180;7865;50.918;4.510;2023-08-06T18:52:10;100973.00;;;14.40
15607;BMP180;7865;50.918;4.510;2023-08-06T18:57:11;100988.00;;;14.30
15607;BMP180;7865;50.918;4.510;2023-08-06T19:02:13;100990.00;;;14.10
15607;BMP180;7865;50.918;4.510;2023-08-06T19:07:15;100992.00;;;14.00
15607;BMP180;7865;50.918;4.510;2023-08-06T19:12:16;100988.00;;;13.90
15607;BMP180;7865;50.918;4.510;2023-08-06T19:17:21;101001.00;;;13.80
15607;BMP180;7865;50.918;4.510;2023-08-06T19:22:23;101003.00;;;13.70
15607;BMP180;7865;50.918;4.510;2023-08-06T19:27:25;100995.00;;;13.60
15607;BMP180;7865;50.918;4.510;2023-08-06T19:32:26;100999.00;;;13.60
15607;BMP180;7865;50.918;4.510;2023-08-06T19:37:28;100998.00;;;13.40
15607;BMP180;7865;50.918;4.510;2023-08-06T19:42:30;101003.00;;;13.40
15607;BMP180;7865;50.918;4.510;2023-08-06T19:47:31;101008.00;;;13.30
15607;BMP180;7865;50.918;4.510;2023-08-06T19:52:33;101002.00;;;13.20
15607;BMP180;7865;50.918;4.510;2023-08-06T19:57:34;101003.00;;;13.10
15607;BMP180;7865;50.918;4.510;2023-08-06T20:02:36;101012.00;;;13.10
15607;BMP180;7865;50.918;4.510;2023-08-06T20:07:37;101019.00;;;13.10
15607;BMP180;7865;50.918;4.510;2023-08-06T20:12:39;101014.00;;;13.00
15607;BMP180;7865;50.918;4.510;2023-08-06T20:17:40;101023.00;;;12.90
15607;BMP180;7865;50.918;4.510;2023-08-06T20:22:42;101019.00;;;12.70
15607;BMP180;7865;50.918;4.510;2023-08-06T20:27:44;101023.00;;;12.70
15607;BMP180;7865;50.918;4.510;2023-08-06T20:32:46;101023.00;;;12.60
15607;BMP180;7865;50.918;4.510;2023-08-06T20:37:47;101027.00;;;12.50
15607;BMP180;7865;50.918;4.510;2023-08-06T20:42:49;101027.00;;;12.40
15607;BMP180;7865;50.918;4.510;2023-08-06T20:47:50;101028.00;;;12.30
15607;BMP180;7865;50.918;4.510;2023-08-06T20:52:52;101038.00;;;12.30
15607;BMP180;7865;50.918;4.510;2023-08-06T20:57:54;101038.00;;;12.20
15607;BMP180;7865;50.918;4.510;2023-08-06T21:02:55;101038.00;;;12.20
15607;BMP180;7865;50.918;4.510;2023-08-06T21:07:57;101041.00;;;12.20
15607;BMP180;7865;50.918;4.510;2023-08-06T21:12:58;101040.00;;;12.20
15607;BMP180;7865;50.918;4.510;2023-08-06T21:18:00;101046.00;;;12.10
15607;BMP180;7865;50.918;4.510;2023-08-06T21:23:02;101044.00;;;12.10
15607;BMP180;7865;50.918;4.510;2023-08-06T21:28:03;101048.00;;;12.10
15607;BMP180;7865;50.918;4.510;2023-08-06T21:33:04;101044.00;;;12.10
15607;BMP180;7865;50.918;4.510;2023-08-06T21:38:06;101052.00;;;12.10
15607;BMP180;7865;50.918;4.510;2023-08-06T21:43:07;101058.00;;;12.10
15607;BMP180;7865;50.918;4.510;2023-08-06T21:48:08;101042.00;;;12.10
15607;BMP180;7865;50.918;4.510;2023-08-06T21:53:10;101045.00;;;12.00
15607;BMP180;7865;50.918;4.510;2023-08-06T21:58:11;101045.00;;;12.00
15607;BMP180;7865;50.918;4.510;2023-08-06T22:03:13;101048.00;;;12.00
15607;BMP180;7865;50.918;4.510;2023-08-06T22:08:15;101050.00;;;11.90
15607;BMP180;7865;50.918;4.510;2023-08-06T22:13:17;101059.00;;;11.90
15607;BMP180;7865;50.918;4.510;2023-08-06T22:18:18;101065.00;;;11.80
15607;BMP180;7865;50.918;4.510;2023-08-06T22:23:20;101052.00;;;11.80
15607;BMP180;7865;50.918;4.510;2023-08-06T22:28:23;101059.00;;;11.80
15607;BMP180;7865;50.918;4.510;2023-08-06T22:33:25;101059.00;;;11.80
15607;BMP180;7865;50.918;4.510;2023-08-06T22:38:30;101053.00;;;11.70
15607;BMP180;7865;50.918;4.510;2023-08-06T22:43:32;101047.00;;;11.70
15607;BMP180;7865;50.918;4.510;2023-08-06T22:48:33;101054.00;;;11.70
15607;BMP180;7865;50.918;4.510;2023-08-06T22:53:35;101054.00;;;11.60
15607;BMP180;7865;50.918;4.510;2023-08-06T22:58:36;101054.00;;;11.60
15607;BMP180;7865;50.918;4.510;2023-08-06T23:03:38;101058.00;;;11.60
15607;BMP180;7865;50.918;4.510;2023-08-06T23:08:40;101057.00;;;11.60
15607;BMP180;7865;50.918;4.510;2023-08-06T23:13:41;101074.00;;;11.60
15607;BMP180;7865;50.918;4.510;2023-08-06T23:18:43;101071.00;;;11.60
15607;BMP180;7865;50.918;4.510;2023-08-06T23:23:44;101065.00;;;11.60
15607;BMP180;7865;50.918;4.510;2023-08-06T23:28:46;101059.00;;;11.50
15607;BMP180;7865;50.918;4.510;2023-08-06T23:33:50;101061.00;;;11.40
15607;BMP180;7865;50.918;4.510;2023-08-06T23:38:51;101068.00;;;11.40
15607;BMP180;7865;50.918;4.510;2023-08-06T23:43:55;101073.00;;;11.40
15607;BMP180;7865;50.918;4.510;2023-08-06T23:48:57;101066.00;;;11.40
15607;BMP180;7865;50.918;4.510;2023-08-06T23:53:58;101073.00;;;11.30
15607;BMP180;7865;50.918;4.510;2023-08-06T23:59:00;101075.00;;;11.40
